sensor_id;sensor_type;location;lat;lon;timestamp;P1;durP1;ratioP1;P2;durP2;ratioP2
7487;SDS011;3785;52.260;4.728;2022-09-11T00:02:29;14.15;;;9.13;;
7487;SDS011;3785;52.260;4.728;2022-09-11T00:05:50;12.10;;;8.27;;
7487;SDS011;3785;52.260;4.728;2022-09-11T00:09:10;12.50;;;8.38;;
7487;SDS011;3785;52.260;4.728;2022-09-11T00:12:31;12.60;;;8.70;;
7487;SDS011;3785;52.260;4.728;2022-09-11T00:15:52;11.98;;;8.68;;
7487;SDS011;3785;52.260;4.728;2022-09-11T00:19:17;12.10;;;8.25;;
7487;SDS011;3785;52.260;4.728;2022-09-11T00:22:38;13.45;;;8.25;;
7487;SDS011;3785;52.260;4.728;2022-09-11T00:26:02;9.35;;;7.07;;
7487;SDS011;3785;52.260;4.728;2022-09-11T00:29:23;10.75;;;7.45;;
7487;SDS011;3785;52.260;4.728;2022-09-11T00:32:44;10.75;;;7.50;;
7487;SDS011;3785;52.260;4.728;2022-09-11T00:36:06;11.90;;;7.25;;
7487;SDS011;3785;52.260;4.728;2022-09-11T00:39:27;9.02;;;6.65;;
7487;SDS011;3785;52.260;4.728;2022-09-11T00:42:52;11.23;;;7.72;;
7487;SDS011;3785;52.260;4.728;2022-09-11T00:46:13;9.45;;;7.63;;
7487;SDS011;3785;52.260;4.728;2022-09-11T00:49:41;11.07;;;8.20;;
7487;SDS011;3785;52.260;4.728;2022-09-11T00:53:10;11.80;;;8.05;;
7487;SDS011;3785;52.260;4.728;2022-09-11T00:56:34;13.00;;;8.43;;
7487;SDS011;3785;52.260;4.728;2022-09-11T00:59:57;11.55;;;8.13;;
7487;SDS011;3785;52.260;4.728;2022-09-11T01:03:19;10.88;;;7.93;;
7487;SDS011;3785;52.260;4.728;2022-09-11T01:06:39;10.52;;;7.68;;
7487;SDS011;3785;52.260;4.728;2022-09-11T01:10:00;11.70;;;8.30;;
7487;SDS011;3785;52.260;4.728;2022-09-11T01:17:14;12.82;;;8.00;;
7487;SDS011;3785;52.260;4.728;2022-09-11T01:24:52;11.60;;;7.70;;
7487;SDS011;3785;52.260;4.728;2022-09-11T01:28:47;15.43;;;8.73;;
7487;SDS011;3785;52.260;4.728;2022-09-11T01:39:05;11.18;;;7.30;;
7487;SDS011;3785;52.260;4.728;2022-09-11T01:42:27;12.77;;;9.05;;
7487;SDS011;3785;52.260;4.728;2022-09-11T01:45:49;13.35;;;8.32;;
7487;SDS011;3785;52.260;4.728;2022-09-11T01:52:35;11.25;;;8.10;;
7487;SDS011;3785;52.260;4.728;2022-09-11T01:56:02;15.07;;;9.02;;
7487;SDS011;3785;52.260;4.728;2022-09-11T01:59:30;11.40;;;7.65;;
7487;SDS011;3785;52.260;4.728;2022-09-11T02:03:01;13.75;;;8.80;;
7487;SDS011;3785;52.260;4.728;2022-09-11T02:07:04;12.18;;;8.27;;
7487;SDS011;3785;52.260;4.728;2022-09-11T02:10:19;12.70;;;8.73;;
7487;SDS011;3785;52.260;4.728;2022-09-11T02:21:01;11.95;;;8.15;;
7487;SDS011;3785;52.260;4.728;2022-09-11T02:24:22;14.15;;;9.73;;
7487;SDS011;3785;52.260;4.728;2022-09-11T02:27:43;16.35;;;9.43;;
7487;SDS011;3785;52.260;4.728;2022-09-11T02:31:04;14.60;;;9.48;;
7487;SDS011;3785;52.260;4.728;2022-09-11T02:34:27;14.27;;;9.73;;
7487;SDS011;3785;52.260;4.728;2022-09-11T02:37:58;13.25;;;8.43;;
7487;SDS011;3785;52.260;4.728;2022-09-11T02:41:47;13.80;;;9.82;;
7487;SDS011;3785;52.260;4.728;2022-09-11T02:48:57;14.02;;;8.45;;
7487;SDS011;3785;52.260;4.728;2022-09-11T02:56:07;13.93;;;8.88;;
7487;SDS011;3785;52.260;4.728;2022-09-11T03:00:00;14.38;;;9.10;;
7487;SDS011;3785;52.260;4.728;2022-09-11T03:03:24;14.65;;;8.85;;
7487;SDS011;3785;52.260;4.728;2022-09-11T03:06:44;12.18;;;7.82;;
7487;SDS011;3785;52.260;4.728;2022-09-11T03:10:07;13.32;;;8.88;;
7487;SDS011;3785;52.260;4.728;2022-09-11T03:13:30;13.98;;;8.93;;
7487;SDS011;3785;52.260;4.728;2022-09-11T03:16:50;14.25;;;9.07;;
7487;SDS011;3785;52.260;4.728;2022-09-11T03:20:11;15.23;;;9.40;;
7487;SDS011;3785;52.260;4.728;2022-09-11T03:23:32;16.58;;;9.63;;
7487;SDS011;3785;52.260;4.728;2022-09-11T03:26:52;13.55;;;9.18;;
7487;SDS011;3785;52.260;4.728;2022-09-11T03:30:13;14.52;;;9.00;;
7487;SDS011;3785;52.260;4.728;2022-09-11T03:33:33;12.63;;;7.78;;
7487;SDS011;3785;52.260;4.728;2022-09-11T03:36:54;13.00;;;7.85;;
7487;SDS011;3785;52.260;4.728;2022-09-11T03:40:15;12.73;;;7.97;;
7487;SDS011;3785;52.260;4.728;2022-09-11T03:43:35;13.07;;;8.18;;
7487;SDS011;3785;52.260;4.728;2022-09-11T03:46:56;12.50;;;8.52;;
7487;SDS011;3785;52.260;4.728;2022-09-11T03:50:17;13.43;;;8.32;;
7487;SDS011;3785;52.260;4.728;2022-09-11T03:53:37;11.50;;;7.80;;
7487;SDS011;3785;52.260;4.728;2022-09-11T03:56:58;13.10;;;8.25;;
7487;SDS011;3785;52.260;4.728;2022-09-11T04:00:19;34.35;;;5.93;;
7487;SDS011;3785;52.260;4.728;2022-09-11T04:03:40;25.25;;;5.90;;
7487;SDS011;3785;52.260;4.728;2022-09-11T04:07:01;13.63;;;7.65;;
7487;SDS011;3785;52.260;4.728;2022-09-11T04:10:21;12.38;;;8.25;;
7487;SDS011;3785;52.260;4.728;2022-09-11T04:13:42;13.30;;;8.23;;
7487;SDS011;3785;52.260;4.728;2022-09-11T04:17:03;12.48;;;8.30;;
7487;SDS011;3785;52.260;4.728;2022-09-11T04:20:24;13.13;;;8.05;;
7487;SDS011;3785;52.260;4.728;2022-09-11T04:23:44;11.52;;;7.53;;
7487;SDS011;3785;52.260;4.728;2022-09-11T04:27:10;11.27;;;7.55;;
7487;SDS011;3785;52.260;4.728;2022-09-11T04:30:33;12.30;;;7.78;;
7487;SDS011;3785;52.260;4.728;2022-09-11T04:33:57;10.57;;;7.10;;
7487;SDS011;3785;52.260;4.728;2022-09-11T04:37:18;12.88;;;7.45;;
7487;SDS011;3785;52.260;4.728;2022-09-11T04:40:39;11.13;;;6.90;;
7487;SDS011;3785;52.260;4.728;2022-09-11T04:43:59;9.82;;;6.22;;
7487;SDS011;3785;52.260;4.728;2022-09-11T04:47:20;9.35;;;6.68;;
7487;SDS011;3785;52.260;4.728;2022-09-11T04:50:41;10.60;;;7.00;;
7487;SDS011;3785;52.260;4.728;2022-09-11T04:54:01;9.77;;;6.28;;
7487;SDS011;3785;52.260;4.728;2022-09-11T04:57:22;7.82;;;5.50;;
7487;SDS011;3785;52.260;4.728;2022-09-11T05:00:43;9.75;;;6.38;;
7487;SDS011;3785;52.260;4.728;2022-09-11T05:04:04;9.77;;;6.00;;
7487;SDS011;3785;52.260;4.728;2022-09-11T05:07:24;11.77;;;6.57;;
7487;SDS011;3785;52.260;4.728;2022-09-11T05:10:45;11.55;;;7.82;;
7487;SDS011;3785;52.260;4.728;2022-09-11T05:14:06;13.55;;;8.75;;
7487;SDS011;3785;52.260;4.728;2022-09-11T05:17:27;13.93;;;7.90;;
7487;SDS011;3785;52.260;4.728;2022-09-11T05:20:48;11.43;;;7.00;;
7487;SDS011;3785;52.260;4.728;2022-09-11T05:24:19;9.48;;;5.90;;
7487;SDS011;3785;52.260;4.728;2022-09-11T05:27:39;10.07;;;6.50;;
7487;SDS011;3785;52.260;4.728;2022-09-11T05:31:00;12.32;;;8.10;;
7487;SDS011;3785;52.260;4.728;2022-09-11T05:34:21;12.88;;;8.38;;
7487;SDS011;3785;52.260;4.728;2022-09-11T05:37:42;14.55;;;9.23;;
7487;SDS011;3785;52.260;4.728;2022-09-11T05:41:03;14.85;;;8.65;;
7487;SDS011;3785;52.260;4.728;2022-09-11T05:44:25;14.88;;;9.23;;
7487;SDS011;3785;52.260;4.728;2022-09-11T05:47:45;14.82;;;9.23;;
7487;SDS011;3785;52.260;4.728;2022-09-11T05:51:08;15.30;;;9.30;;
7487;SDS011;3785;52.260;4.728;2022-09-11T05:54:30;16.55;;;9.35;;
7487;SDS011;3785;52.260;4.728;2022-09-11T05:57:51;16.60;;;9.80;;
7487;SDS011;3785;52.260;4.728;2022-09-11T06:01:13;14.48;;;8.90;;
7487;SDS011;3785;52.260;4.728;2022-09-11T06:04:34;13.00;;;8.10;;
7487;SDS011;3785;52.260;4.728;2022-09-11T06:07:55;16.40;;;10.02;;
7487;SDS011;3785;52.260;4.728;2022-09-11T06:11:16;15.90;;;9.48;;
7487;SDS011;3785;52.260;4.728;2022-09-11T06:14:37;17.52;;;10.70;;
7487;SDS011;3785;52.260;4.728;2022-09-11T06:17:58;21.73;;;11.07;;
7487;SDS011;3785;52.260;4.728;2022-09-11T06:21:19;19.20;;;10.88;;
7487;SDS011;3785;52.260;4.728;2022-09-11T06:24:41;20.77;;;10.98;;
7487;SDS011;3785;52.260;4.728;2022-09-11T06:28:02;16.80;;;11.02;;
7487;SDS011;3785;52.260;4.728;2022-09-11T06:31:24;21.52;;;11.25;;
7487;SDS011;3785;52.260;4.728;2022-09-11T06:34:45;20.35;;;10.23;;
7487;SDS011;3785;52.260;4.728;2022-09-11T06:38:06;19.90;;;9.98;;
7487;SDS011;3785;52.260;4.728;2022-09-11T06:41:27;18.80;;;10.85;;
7487;SDS011;3785;52.260;4.728;2022-09-11T06:44:47;16.65;;;10.05;;
7487;SDS011;3785;52.260;4.728;2022-09-11T06:48:10;20.00;;;11.77;;
7487;SDS011;3785;52.260;4.728;2022-09-11T06:51:31;19.48;;;11.60;;
7487;SDS011;3785;52.260;4.728;2022-09-11T06:54:52;16.30;;;10.75;;
7487;SDS011;3785;52.260;4.728;2022-09-11T06:58:13;16.52;;;10.23;;
7487;SDS011;3785;52.260;4.728;2022-09-11T07:01:34;16.17;;;10.02;;
7487;SDS011;3785;52.260;4.728;2022-09-11T07:04:55;16.88;;;10.88;;
7487;SDS011;3785;52.260;4.728;2022-09-11T07:08:15;18.90;;;11.02;;
7487;SDS011;3785;52.260;4.728;2022-09-11T07:11:36;16.77;;;10.75;;
7487;SDS011;3785;52.260;4.728;2022-09-11T07:14:58;16.75;;;10.30;;
7487;SDS011;3785;52.260;4.728;2022-09-11T07:18:19;17.30;;;11.02;;
7487;SDS011;3785;52.260;4.728;2022-09-11T07:21:40;16.33;;;10.27;;
7487;SDS011;3785;52.260;4.728;2022-09-11T07:25:01;16.77;;;10.02;;
7487;SDS011;3785;52.260;4.728;2022-09-11T07:28:21;16.77;;;10.23;;
7487;SDS011;3785;52.260;4.728;2022-09-11T07:31:42;13.05;;;9.05;;
7487;SDS011;3785;52.260;4.728;2022-09-11T07:35:03;15.15;;;9.70;;
7487;SDS011;3785;52.260;4.728;2022-09-11T07:38:24;10.32;;;7.28;;
7487;SDS011;3785;52.260;4.728;2022-09-11T07:41:45;11.60;;;8.13;;
7487;SDS011;3785;52.260;4.728;2022-09-11T07:45:05;12.75;;;7.13;;
7487;SDS011;3785;52.260;4.728;2022-09-11T07:48:27;10.57;;;7.20;;
7487;SDS011;3785;52.260;4.728;2022-09-11T07:51:48;11.38;;;7.22;;
7487;SDS011;3785;52.260;4.728;2022-09-11T07:55:08;11.02;;;7.38;;
7487;SDS011;3785;52.260;4.728;2022-09-11T07:58:36;13.82;;;7.32;;
7487;SDS011;3785;52.260;4.728;2022-09-11T08:01:57;11.35;;;6.55;;
7487;SDS011;3785;52.260;4.728;2022-09-11T08:05:18;14.43;;;11.13;;
7487;SDS011;3785;52.260;4.728;2022-09-11T08:08:39;11.25;;;9.32;;
7487;SDS011;3785;52.260;4.728;2022-09-11T08:12:01;11.88;;;8.50;;
7487;SDS011;3785;52.260;4.728;2022-09-11T08:15:22;10.68;;;8.23;;
7487;SDS011;3785;52.260;4.728;2022-09-11T08:18:42;10.80;;;7.22;;
7487;SDS011;3785;52.260;4.728;2022-09-11T08:22:04;12.15;;;6.90;;
7487;SDS011;3785;52.260;4.728;2022-09-11T08:25:24;9.95;;;6.20;;
7487;SDS011;3785;52.260;4.728;2022-09-11T08:28:48;6.53;;;5.22;;
7487;SDS011;3785;52.260;4.728;2022-09-11T08:32:09;7.00;;;5.25;;
7487;SDS011;3785;52.260;4.728;2022-09-11T08:35:32;8.23;;;5.22;;
7487;SDS011;3785;52.260;4.728;2022-09-11T08:38:53;8.00;;;5.65;;
7487;SDS011;3785;52.260;4.728;2022-09-11T08:42:14;5.00;;;4.30;;
7487;SDS011;3785;52.260;4.728;2022-09-11T08:45:35;6.35;;;4.85;;
7487;SDS011;3785;52.260;4.728;2022-09-11T08:48:58;7.32;;;4.15;;
7487;SDS011;3785;52.260;4.728;2022-09-11T08:52:23;4.88;;;4.00;;
7487;SDS011;3785;52.260;4.728;2022-09-11T08:55:49;5.82;;;4.63;;
7487;SDS011;3785;52.260;4.728;2022-09-11T09:06:52;5.03;;;3.60;;
7487;SDS011;3785;52.260;4.728;2022-09-11T09:17:32;3.95;;;2.33;;
7487;SDS011;3785;52.260;4.728;2022-09-11T09:21:20;4.50;;;2.85;;
7487;SDS011;3785;52.260;4.728;2022-09-11T09:24:48;4.65;;;3.00;;
7487;SDS011;3785;52.260;4.728;2022-09-11T09:28:19;5.18;;;3.15;;
7487;SDS011;3785;52.260;4.728;2022-09-11T09:31:43;4.05;;;3.35;;
7487;SDS011;3785;52.260;4.728;2022-09-11T09:35:09;3.92;;;2.83;;
7487;SDS011;3785;52.260;4.728;2022-09-11T09:38:35;3.90;;;2.92;;
7487;SDS011;3785;52.260;4.728;2022-09-11T09:42:03;3.90;;;3.00;;
7487;SDS011;3785;52.260;4.728;2022-09-11T09:45:53;5.18;;;3.28;;
7487;SDS011;3785;52.260;4.728;2022-09-11T09:49:50;4.30;;;3.30;;
7487;SDS011;3785;52.260;4.728;2022-09-11T09:53:15;4.32;;;2.88;;
7487;SDS011;3785;52.260;4.728;2022-09-11T09:56:51;3.38;;;2.63;;
7487;SDS011;3785;52.260;4.728;2022-09-11T10:00:40;3.50;;;2.70;;
7487;SDS011;3785;52.260;4.728;2022-09-11T10:04:08;4.45;;;3.08;;
7487;SDS011;3785;52.260;4.728;2022-09-11T10:07:30;5.68;;;2.78;;
7487;SDS011;3785;52.260;4.728;2022-09-11T10:14:19;4.70;;;2.58;;
7487;SDS011;3785;52.260;4.728;2022-09-11T10:17:40;3.35;;;2.08;;
7487;SDS011;3785;52.260;4.728;2022-09-11T10:24:31;5.88;;;2.50;;
7487;SDS011;3785;52.260;4.728;2022-09-11T10:27:54;3.10;;;1.95;;
7487;SDS011;3785;52.260;4.728;2022-09-11T10:31:34;4.45;;;2.15;;
7487;SDS011;3785;52.260;4.728;2022-09-11T10:34:58;4.30;;;2.08;;
7487;SDS011;3785;52.260;4.728;2022-09-11T10:38:20;5.28;;;2.25;;
7487;SDS011;3785;52.260;4.728;2022-09-11T10:41:53;3.72;;;1.80;;
7487;SDS011;3785;52.260;4.728;2022-09-11T10:45:16;3.70;;;1.92;;
7487;SDS011;3785;52.260;4.728;2022-09-11T10:48:38;3.33;;;1.83;;
7487;SDS011;3785;52.260;4.728;2022-09-11T10:52:22;3.97;;;2.60;;
7487;SDS011;3785;52.260;4.728;2022-09-11T11:00:11;2.97;;;2.03;;
7487;SDS011;3785;52.260;4.728;2022-09-11T11:03:40;2.53;;;1.98;;
7487;SDS011;3785;52.260;4.728;2022-09-11T11:07:13;3.03;;;1.45;;
7487;SDS011;3785;52.260;4.728;2022-09-11T11:10:39;2.08;;;1.20;;
7487;SDS011;3785;52.260;4.728;2022-09-11T11:14:15;2.97;;;1.42;;
7487;SDS011;3785;52.260;4.728;2022-09-11T11:17:58;2.50;;;1.30;;
7487;SDS011;3785;52.260;4.728;2022-09-11T11:36:03;2.58;;;1.38;;
7487;SDS011;3785;52.260;4.728;2022-09-11T11:40:43;3.08;;;1.30;;
7487;SDS011;3785;52.260;4.728;2022-09-11T11:43:36;3.47;;;1.70;;
7487;SDS011;3785;52.260;4.728;2022-09-11T11:46:59;3.08;;;1.50;;
7487;SDS011;3785;52.260;4.728;2022-09-11T11:50:23;3.58;;;1.73;;
7487;SDS011;3785;52.260;4.728;2022-09-11T11:54:00;2.22;;;1.58;;
7487;SDS011;3785;52.260;4.728;2022-09-11T11:57:31;3.35;;;1.83;;
7487;SDS011;3785;52.260;4.728;2022-09-11T12:00:57;2.92;;;1.58;;
7487;SDS011;3785;52.260;4.728;2022-09-11T12:08:20;2.13;;;1.40;;
7487;SDS011;3785;52.260;4.728;2022-09-11T12:11:41;5.20;;;1.60;;
7487;SDS011;3785;52.260;4.728;2022-09-11T12:15:08;3.47;;;1.80;;
7487;SDS011;3785;52.260;4.728;2022-09-11T12:22:48;1.90;;;1.30;;
7487;SDS011;3785;52.260;4.728;2022-09-11T12:29:40;3.90;;;2.75;;
7487;SDS011;3785;52.260;4.728;2022-09-11T12:33:09;3.53;;;2.55;;
7487;SDS011;3785;52.260;4.728;2022-09-11T12:37:11;3.75;;;2.28;;
7487;SDS011;3785;52.260;4.728;2022-09-11T12:44:54;3.50;;;2.97;;
7487;SDS011;3785;52.260;4.728;2022-09-11T12:48:15;3.50;;;2.40;;
7487;SDS011;3785;52.260;4.728;2022-09-11T12:51:39;3.20;;;2.88;;
7487;SDS011;3785;52.260;4.728;2022-09-11T12:55:03;4.35;;;3.20;;
7487;SDS011;3785;52.260;4.728;2022-09-11T12:58:39;3.78;;;2.13;;
7487;SDS011;3785;52.260;4.728;2022-09-11T13:02:02;3.28;;;1.95;;
7487;SDS011;3785;52.260;4.728;2022-09-11T13:05:34;3.03;;;1.75;;
7487;SDS011;3785;52.260;4.728;2022-09-11T13:08:57;2.03;;;1.67;;
7487;SDS011;3785;52.260;4.728;2022-09-11T13:15:45;3.20;;;1.90;;
7487;SDS011;3785;52.260;4.728;2022-09-11T13:22:31;2.70;;;1.73;;
7487;SDS011;3785;52.260;4.728;2022-09-11T13:25:54;2.10;;;1.45;;
7487;SDS011;3785;52.260;4.728;2022-09-11T13:29:15;4.57;;;1.70;;
7487;SDS011;3785;52.260;4.728;2022-09-11T13:32:36;2.17;;;1.75;;
7487;SDS011;3785;52.260;4.728;2022-09-11T13:35:57;3.22;;;1.70;;
7487;SDS011;3785;52.260;4.728;2022-09-11T13:39:21;1.48;;;1.08;;
7487;SDS011;3785;52.260;4.728;2022-09-11T13:42:44;1.80;;;1.10;;
7487;SDS011;3785;52.260;4.728;2022-09-11T13:49:35;1.65;;;1.05;;
7487;SDS011;3785;52.260;4.728;2022-09-11T13:52:57;1.52;;;1.05;;
7487;SDS011;3785;52.260;4.728;2022-09-11T13:56:42;2.45;;;1.08;;
7487;SDS011;3785;52.260;4.728;2022-09-11T14:04:04;3.17;;;1.10;;
7487;SDS011;3785;52.260;4.728;2022-09-11T14:07:30;3.25;;;1.20;;
7487;SDS011;3785;52.260;4.728;2022-09-11T14:10:55;1.65;;;0.90;;
7487;SDS011;3785;52.260;4.728;2022-09-11T14:14:24;2.70;;;1.42;;
7487;SDS011;3785;52.260;4.728;2022-09-11T14:17:45;3.17;;;1.15;;
7487;SDS011;3785;52.260;4.728;2022-09-11T14:24:53;1.60;;;1.00;;
7487;SDS011;3785;52.260;4.728;2022-09-11T14:32:29;1.58;;;1.20;;
7487;SDS011;3785;52.260;4.728;2022-09-11T14:35:52;2.22;;;1.10;;
7487;SDS011;3785;52.260;4.728;2022-09-11T14:39:20;1.52;;;0.80;;
7487;SDS011;3785;52.260;4.728;2022-09-11T14:42:42;1.70;;;1.10;;
7487;SDS011;3785;52.260;4.728;2022-09-11T14:46:04;1.65;;;1.10;;
7487;SDS011;3785;52.260;4.728;2022-09-11T14:49:25;1.30;;;0.98;;
7487;SDS011;3785;52.260;4.728;2022-09-11T14:52:45;1.83;;;1.05;;
7487;SDS011;3785;52.260;4.728;2022-09-11T14:56:06;2.67;;;1.40;;
7487;SDS011;3785;52.260;4.728;2022-09-11T14:59:28;2.83;;;1.20;;
7487;SDS011;3785;52.260;4.728;2022-09-11T15:02:48;2.45;;;1.33;;
7487;SDS011;3785;52.260;4.728;2022-09-11T15:06:15;3.45;;;1.25;;
7487;SDS011;3785;52.260;4.728;2022-09-11T15:09:39;1.58;;;0.85;;
7487;SDS011;3785;52.260;4.728;2022-09-11T15:13:00;1.33;;;0.90;;
7487;SDS011;3785;52.260;4.728;2022-09-11T15:16:21;1.70;;;0.90;;
7487;SDS011;3785;52.260;4.728;2022-09-11T15:19:42;1.63;;;0.93;;
7487;SDS011;3785;52.260;4.728;2022-09-11T15:23:08;1.88;;;0.82;;
7487;SDS011;3785;52.260;4.728;2022-09-11T15:26:28;3.08;;;1.10;;
7487;SDS011;3785;52.260;4.728;2022-09-11T15:29:50;1.20;;;0.70;;
7487;SDS011;3785;52.260;4.728;2022-09-11T15:33:10;1.73;;;0.90;;
7487;SDS011;3785;52.260;4.728;2022-09-11T15:36:31;2.28;;;1.10;;
7487;SDS011;3785;52.260;4.728;2022-09-11T15:39:52;2.35;;;1.00;;
7487;SDS011;3785;52.260;4.728;2022-09-11T15:43:13;2.60;;;0.82;;
7487;SDS011;3785;52.260;4.728;2022-09-11T15:46:34;1.50;;;0.75;;
7487;SDS011;3785;52.260;4.728;2022-09-11T15:49:54;1.52;;;0.93;;
7487;SDS011;3785;52.260;4.728;2022-09-11T15:53:15;2.00;;;0.90;;
7487;SDS011;3785;52.260;4.728;2022-09-11T15:56:35;1.58;;;0.90;;
7487;SDS011;3785;52.260;4.728;2022-09-11T15:59:56;2.45;;;0.90;;
7487;SDS011;3785;52.260;4.728;2022-09-11T16:03:17;2.08;;;0.65;;
7487;SDS011;3785;52.260;4.728;2022-09-11T16:06:41;0.95;;;0.70;;
7487;SDS011;3785;52.260;4.728;2022-09-11T16:10:04;1.88;;;0.68;;
7487;SDS011;3785;52.260;4.728;2022-09-11T16:13:25;1.10;;;0.60;;
7487;SDS011;3785;52.260;4.728;2022-09-11T16:16:45;1.80;;;0.82;;
7487;SDS011;3785;52.260;4.728;2022-09-11T16:20:06;2.30;;;0.70;;
7487;SDS011;3785;52.260;4.728;2022-09-11T16:23:27;2.08;;;0.80;;
7487;SDS011;3785;52.260;4.728;2022-09-11T16:26:48;1.35;;;0.60;;
7487;SDS011;3785;52.260;4.728;2022-09-11T16:30:09;2.78;;;0.90;;
7487;SDS011;3785;52.260;4.728;2022-09-11T16:33:30;1.15;;;0.60;;
7487;SDS011;3785;52.260;4.728;2022-09-11T16:36:51;1.98;;;0.90;;
7487;SDS011;3785;52.260;4.728;2022-09-11T16:40:12;2.22;;;0.90;;
7487;SDS011;3785;52.260;4.728;2022-09-11T16:43:35;1.02;;;0.70;;
7487;SDS011;3785;52.260;4.728;2022-09-11T16:46:57;1.55;;;0.80;;
7487;SDS011;3785;52.260;4.728;2022-09-11T16:50:18;1.55;;;0.85;;
7487;SDS011;3785;52.260;4.728;2022-09-11T16:53:39;2.08;;;1.23;;
7487;SDS011;3785;52.260;4.728;2022-09-11T16:57:04;2.10;;;1.10;;
7487;SDS011;3785;52.260;4.728;2022-09-11T17:00:25;2.22;;;0.98;;
7487;SDS011;3785;52.260;4.728;2022-09-11T17:03:47;1.83;;;1.25;;
7487;SDS011;3785;52.260;4.728;2022-09-11T17:07:08;2.22;;;1.00;;
7487;SDS011;3785;52.260;4.728;2022-09-11T17:10:29;1.65;;;0.80;;
7487;SDS011;3785;52.260;4.728;2022-09-11T17:13:50;1.70;;;1.08;;
7487;SDS011;3785;52.260;4.728;2022-09-11T17:17:10;2.47;;;0.85;;
7487;SDS011;3785;52.260;4.728;2022-09-11T17:20:31;1.38;;;0.88;;
7487;SDS011;3785;52.260;4.728;2022-09-11T17:23:52;1.52;;;1.05;;
7487;SDS011;3785;52.260;4.728;2022-09-11T17:27:14;1.75;;;0.98;;
7487;SDS011;3785;52.260;4.728;2022-09-11T17:30:37;2.53;;;0.95;;
7487;SDS011;3785;52.260;4.728;2022-09-11T17:33:58;1.75;;;1.00;;
7487;SDS011;3785;52.260;4.728;2022-09-11T17:37:19;2.25;;;0.95;;
7487;SDS011;3785;52.260;4.728;2022-09-11T17:40:39;2.63;;;1.05;;
7487;SDS011;3785;52.260;4.728;2022-09-11T17:44:00;3.70;;;0.90;;
7487;SDS011;3785;52.260;4.728;2022-09-11T17:47:21;2.08;;;0.90;;
7487;SDS011;3785;52.260;4.728;2022-09-11T17:50:41;2.70;;;1.20;;
7487;SDS011;3785;52.260;4.728;2022-09-11T17:54:02;1.40;;;1.10;;
7487;SDS011;3785;52.260;4.728;2022-09-11T17:57:23;3.00;;;1.42;;
7487;SDS011;3785;52.260;4.728;2022-09-11T18:00:47;4.57;;;2.53;;
7487;SDS011;3785;52.260;4.728;2022-09-11T18:04:08;3.42;;;1.80;;
7487;SDS011;3785;52.260;4.728;2022-09-11T18:07:29;2.63;;;1.92;;
7487;SDS011;3785;52.260;4.728;2022-09-11T18:10:58;2.92;;;2.25;;
7487;SDS011;3785;52.260;4.728;2022-09-11T18:14:19;3.05;;;1.60;;
7487;SDS011;3785;52.260;4.728;2022-09-11T18:17:40;2.10;;;1.60;;
7487;SDS011;3785;52.260;4.728;2022-09-11T18:21:05;3.47;;;1.30;;
7487;SDS011;3785;52.260;4.728;2022-09-11T18:24:27;3.00;;;1.55;;
7487;SDS011;3785;52.260;4.728;2022-09-11T18:27:48;2.92;;;1.50;;
7487;SDS011;3785;52.260;4.728;2022-09-11T18:31:10;1.95;;;1.30;;
7487;SDS011;3785;52.260;4.728;2022-09-11T18:34:30;2.67;;;1.70;;
7487;SDS011;3785;52.260;4.728;2022-09-11T18:37:52;4.13;;;2.30;;
7487;SDS011;3785;52.260;4.728;2022-09-11T18:41:12;4.82;;;2.83;;
7487;SDS011;3785;52.260;4.728;2022-09-11T18:44:33;3.28;;;2.65;;
7487;SDS011;3785;52.260;4.728;2022-09-11T18:47:54;2.97;;;2.10;;
7487;SDS011;3785;52.260;4.728;2022-09-11T18:51:14;4.05;;;2.58;;
7487;SDS011;3785;52.260;4.728;2022-09-11T18:54:35;4.25;;;2.30;;
7487;SDS011;3785;52.260;4.728;2022-09-11T18:57:57;2.40;;;2.17;;
7487;SDS011;3785;52.260;4.728;2022-09-11T19:01:20;3.95;;;2.30;;
7487;SDS011;3785;52.260;4.728;2022-09-11T19:04:42;4.85;;;2.28;;
7487;SDS011;3785;52.260;4.728;2022-09-11T19:08:03;3.67;;;2.40;;
7487;SDS011;3785;52.260;4.728;2022-09-11T19:11:25;3.83;;;2.53;;
7487;SDS011;3785;52.260;4.728;2022-09-11T19:14:47;3.33;;;2.75;;
7487;SDS011;3785;52.260;4.728;2022-09-11T19:18:08;5.68;;;3.20;;
7487;SDS011;3785;52.260;4.728;2022-09-11T19:21:28;3.30;;;2.72;;
7487;SDS011;3785;52.260;4.728;2022-09-11T19:24:49;4.47;;;2.70;;
7487;SDS011;3785;52.260;4.728;2022-09-11T19:28:11;4.72;;;2.72;;
7487;SDS011;3785;52.260;4.728;2022-09-11T19:31:31;4.15;;;2.50;;
7487;SDS011;3785;52.260;4.728;2022-09-11T19:34:52;2.83;;;2.30;;
7487;SDS011;3785;52.260;4.728;2022-09-11T19:38:13;2.83;;;2.00;;
7487;SDS011;3785;52.260;4.728;2022-09-11T19:41:35;3.00;;;2.20;;
7487;SDS011;3785;52.260;4.728;2022-09-11T19:44:56;3.88;;;2.35;;
7487;SDS011;3785;52.260;4.728;2022-09-11T19:48:17;4.30;;;2.40;;
7487;SDS011;3785;52.260;4.728;2022-09-11T19:51:38;4.00;;;2.55;;
7487;SDS011;3785;52.260;4.728;2022-09-11T19:55:00;4.85;;;2.70;;
7487;SDS011;3785;52.260;4.728;2022-09-11T19:58:23;2.60;;;2.20;;
7487;SDS011;3785;52.260;4.728;2022-09-11T20:01:44;3.60;;;2.58;;
7487;SDS011;3785;52.260;4.728;2022-09-11T20:05:04;3.90;;;2.20;;
7487;SDS011;3785;52.260;4.728;2022-09-11T20:08:26;3.25;;;2.30;;
7487;SDS011;3785;52.260;4.728;2022-09-11T20:11:46;2.70;;;2.28;;
7487;SDS011;3785;52.260;4.728;2022-09-11T20:15:07;3.08;;;2.25;;
7487;SDS011;3785;52.260;4.728;2022-09-11T20:18:28;4.45;;;2.45;;
7487;SDS011;3785;52.260;4.728;2022-09-11T20:21:49;3.08;;;2.13;;
7487;SDS011;3785;52.260;4.728;2022-09-11T20:25:09;3.60;;;2.20;;
7487;SDS011;3785;52.260;4.728;2022-09-11T20:28:30;3.25;;;2.03;;
7487;SDS011;3785;52.260;4.728;2022-09-11T20:31:51;2.83;;;1.95;;
7487;SDS011;3785;52.260;4.728;2022-09-11T20:35:12;3.22;;;2.13;;
7487;SDS011;3785;52.260;4.728;2022-09-11T20:38:33;3.42;;;2.38;;
7487;SDS011;3785;52.260;4.728;2022-09-11T20:41:54;3.10;;;2.35;;
7487;SDS011;3785;52.260;4.728;2022-09-11T20:45:15;2.72;;;1.90;;
7487;SDS011;3785;52.260;4.728;2022-09-11T20:48:35;3.00;;;1.63;;
7487;SDS011;3785;52.260;4.728;2022-09-11T20:51:57;3.22;;;2.22;;
7487;SDS011;3785;52.260;4.728;2022-09-11T20:55:18;4.60;;;2.50;;
7487;SDS011;3785;52.260;4.728;2022-09-11T20:58:38;2.72;;;1.98;;
7487;SDS011;3785;52.260;4.728;2022-09-11T21:01:59;3.30;;;2.03;;
7487;SDS011;3785;52.260;4.728;2022-09-11T21:05:20;3.17;;;2.30;;
7487;SDS011;3785;52.260;4.728;2022-09-11T21:08:40;3.10;;;2.22;;
7487;SDS011;3785;52.260;4.728;2022-09-11T21:12:01;3.05;;;2.47;;
7487;SDS011;3785;52.260;4.728;2022-09-11T21:15:22;3.38;;;2.20;;
7487;SDS011;3785;52.260;4.728;2022-09-11T21:18:47;2.70;;;2.00;;
7487;SDS011;3785;52.260;4.728;2022-09-11T21:22:09;3.55;;;2.67;;
7487;SDS011;3785;52.260;4.728;2022-09-11T21:25:29;2.80;;;2.28;;
7487;SDS011;3785;52.260;4.728;2022-09-11T21:28:51;3.45;;;2.30;;
7487;SDS011;3785;52.260;4.728;2022-09-11T21:32:11;3.35;;;2.30;;
7487;SDS011;3785;52.260;4.728;2022-09-11T21:35:32;2.97;;;2.30;;
7487;SDS011;3785;52.260;4.728;2022-09-11T21:38:52;3.92;;;2.65;;
7487;SDS011;3785;52.260;4.728;2022-09-11T21:42:13;3.30;;;2.50;;
7487;SDS011;3785;52.260;4.728;2022-09-11T21:45:34;3.83;;;2.88;;
7487;SDS011;3785;52.260;4.728;2022-09-11T21:48:54;5.03;;;3.05;;
7487;SDS011;3785;52.260;4.728;2022-09-11T21:52:15;3.55;;;2.90;;
7487;SDS011;3785;52.260;4.728;2022-09-11T21:55:39;4.10;;;3.28;;
7487;SDS011;3785;52.260;4.728;2022-09-11T21:59:01;4.05;;;3.08;;
7487;SDS011;3785;52.260;4.728;2022-09-11T22:02:23;5.07;;;3.25;;
7487;SDS011;3785;52.260;4.728;2022-09-11T22:05:44;4.78;;;3.38;;
7487;SDS011;3785;52.260;4.728;2022-09-11T22:09:08;4.68;;;3.70;;
7487;SDS011;3785;52.260;4.728;2022-09-11T22:12:29;4.95;;;3.60;;
7487;SDS011;3785;52.260;4.728;2022-09-11T22:15:49;4.60;;;3.70;;
7487;SDS011;3785;52.260;4.728;2022-09-11T22:19:10;6.13;;;4.78;;
7487;SDS011;3785;52.260;4.728;2022-09-11T22:22:34;6.85;;;4.95;;
7487;SDS011;3785;52.260;4.728;2022-09-11T22:25:57;7.03;;;4.90;;
7487;SDS011;3785;52.260;4.728;2022-09-11T22:29:18;7.35;;;5.57;;
7487;SDS011;3785;52.260;4.728;2022-09-11T22:32:39;8.32;;;6.47;;
7487;SDS011;3785;52.260;4.728;2022-09-11T22:36:05;9.52;;;7.07;;
7487;SDS011;3785;52.260;4.728;2022-09-11T22:39:33;12.27;;;7.60;;
7487;SDS011;3785;52.260;4.728;2022-09-11T22:42:53;9.90;;;7.50;;
7487;SDS011;3785;52.260;4.728;2022-09-11T22:46:15;9.85;;;7.20;;
7487;SDS011;3785;52.260;4.728;2022-09-11T22:49:36;10.82;;;7.65;;